Dirección General De Aeronáutica Civil

Dirección Meteorológica de Chile - Servicios Climáticos

Informe General de Control de Calidad de la Estación

Listado de niveles de control de calidad para algunos parámetros
Estación Chañaral Ad. (260002)
Fecha de Revisión de los datos :

Elementos

Registros Niveles de Control Total
Nivel 0 Nivel 1 Nivel 2 Nivel 3 Errores Porcentaje
01 Temperatura del Aire Seco 161.072 0 . 0 . 0 . 0 . 0 0.00 %
02 Temperatura de Rocío 143.468 0 . 0 . 0 . 0 . 0 0.00 %
03 Humedad Relativa del Aire 141.680 0 . 0 . 0 . 0 . 0 0.00 %
04 Temperatura Máxima PM 15.062 0 . 0 . 140 0.93 % 0 . 140 0.93 %
05 Temperatura Mínima AM 15.826 0 . 0 . 27 0.17 % 0 . 27 0.17 %
06 Viento a 10 m. de Altura 162.217 9 0.01 % 40 0.02 % 42 0.03 % 0 . 91 0.06 %
07 Agua Caida, Acumulada 6 Horas 56.965 0 . 0 . 0 . 0 . 0 0.00 %
08 Presión Atm. a Nivel de Estación (QFE) 109.510 0 . 0 . 0 . 0 . 0 0.00 %
09 Presión Atm. a Nivel Medio del Mar (QFF) 79.757 0 . 0 . 0 . 0 . 0 0.00 %
10 Presión Atm. Estándar OACI (QNH) 54.594 1 0.00 % 0 . 0 . 0 . 1 0.00 %
11 Tiempo Pasado Sinóptico 18.094 0 . 0 . 0 . 0 . 0 0.00 %
12 Tiempo Presente Sinóptico 143.294 0 . 5 0.00 % 0 . 0 . 5 0.00 %

Totales

1.101.539 . 0.0009 % . 0.0041 % . 0.0190 % . 0.0000 % 264 0.0240 %

Detalle de Errores Encontrados

Nivel Fecha del Dato Descripción Información Error Fecha Ingreso
0 1956-02-04 17:00:00 ff (Intensidad del Viento) debe ser numerico, entre 0 y 70 kt. 102 2022-06-20 19:07:00
0 1961-12-15 16:00:00 ff (Intensidad del Viento) debe ser numerico, entre 0 y 70 kt. 125 2022-06-13 20:19:00
0 1962-02-14 16:00:00 ff (Intensidad del Viento) debe ser numerico, entre 0 y 70 kt. 100 2021-12-23 17:01:00
0 1964-07-02 13:00:00 ff (Intensidad del Viento) debe ser numerico, entre 0 y 70 kt. 98 2022-04-20 13:07:00
0 1966-07-04 11:00:00 ff (Intensidad del Viento) debe ser numerico, entre 0 y 70 kt. 90 2022-05-17 17:16:00
0 1966-07-04 13:00:00 ff (Intensidad del Viento) debe ser numerico, entre 0 y 70 kt. 90 2022-05-17 17:16:00
0 1966-07-04 14:00:00 ff (Intensidad del Viento) debe ser numerico, entre 0 y 70 kt. 90 2022-05-17 17:16:00
0 1968-03-05 16:00:00 ff (Intensidad del Viento) debe ser numerico, entre 0 y 70 kt. 140 2022-07-11 14:30:00
0 1968-12-01 17:00:00 ff (Intensidad del Viento) debe ser numerico, entre 0 y 70 kt. 120 2022-10-24 13:25:00
0 1983-05-18 13:00:00 qnh (Presión a nivel estandar) debe ser numérico, entre 300 y 1100 107.6 2022-02-22 16:05:00
Errores del Nivel 10
Nivel Fecha del Dato Descripción Información Error Fecha Ingreso
1 1956-02-07 11:00:00 Viento calma fue mal ingresado. dd = 320 - ff = 0 2022-06-20 20:27:00
1 1956-02-07 14:00:00 Viento calma fue mal ingresado. dd = 0 - ff = 2 2022-06-20 20:27:00
1 1956-05-19 13:00:00 Viento calma fue mal ingresado. dd = 90 - ff = 0 2022-06-30 14:48:00
1 1956-05-19 14:00:00 Viento calma fue mal ingresado. dd = 0 - ff = 2 2022-06-30 14:48:00
1 1956-07-24 23:00:00 Viento calma fue mal ingresado. dd = 0 - ff = 6 2022-07-05 20:10:00
1 1956-09-12 13:00:00 Viento calma fue mal ingresado. dd = 0 - ff = 2 2022-07-07 20:42:00
1 1956-09-12 14:00:00 Viento calma fue mal ingresado. dd = 0 - ff = 4 2022-07-07 20:42:00
1 1956-09-24 13:00:00 Viento calma fue mal ingresado. dd = 0 - ff = 4 2022-07-08 15:30:00
1 1956-10-05 10:00:00 Viento calma fue mal ingresado. dd = 0 - ff = 1 2022-07-08 21:58:00
1 1956-11-12 11:00:00 Viento calma fue mal ingresado. dd = 0 - ff = 2 2022-07-12 21:36:00
1 1958-05-10 17:00:00 ff < 19kt y ((ww >= 31 y ww <= 35) o (ww == 37 o ww == 39 o ww >= 98))) 2022-06-22 13:39:00
1 1958-09-29 16:00:00 Viento calma fue mal ingresado. dd = 270 - ff = 0 2022-06-30 19:54:00
1 1959-08-07 17:00:00 ff < 19kt y ((ww >= 31 y ww <= 35) o (ww == 37 o ww == 39 o ww >= 98))) 2022-07-25 20:56:00
1 1960-03-01 20:00:00 ff < 19kt y ((ww >= 31 y ww <= 35) o (ww == 37 o ww == 39 o ww >= 98))) 2022-08-02 16:56:00
1 1960-09-26 23:00:00 ff < 19kt y ((ww >= 31 y ww <= 35) o (ww == 37 o ww == 39 o ww >= 98))) 2022-08-11 18:21:00
1 1961-01-17 14:00:00 Viento calma fue mal ingresado. dd = 0 - ff = 7 2022-05-23 15:36:00
1 1961-03-04 14:00:00 Viento calma fue mal ingresado. dd = 0 - ff = 2 2022-05-25 21:36:00
1 1961-06-17 16:00:00 Viento calma fue mal ingresado. dd = 0 - ff = 2 2022-06-01 17:36:00
1 1961-07-11 11:00:00 Viento calma fue mal ingresado. dd = 0 - ff = 4 2022-06-02 16:37:00
1 1961-07-11 13:00:00 Viento calma fue mal ingresado. dd = 0 - ff = 2 2022-06-02 16:37:00
1 1961-07-13 14:00:00 Viento calma fue mal ingresado. dd = 0 - ff = 5 2022-06-02 18:29:00
1 1961-07-21 11:00:00 Viento calma fue mal ingresado. dd = 0 - ff = 2 2022-06-02 20:28:00
1 1961-07-30 15:00:00 Viento calma fue mal ingresado. dd = 270 - ff = 0 2022-06-03 15:48:00
1 1961-08-14 17:00:00 Viento calma fue mal ingresado. dd = 0 - ff = 4 2022-06-06 14:14:00
1 1961-10-01 14:00:00 Viento calma fue mal ingresado. dd = 0 - ff = 4 2022-06-08 13:58:00
1 1962-04-14 14:00:00 Viento calma fue mal ingresado. dd = 270 - ff = 0 2021-12-28 12:17:00
1 1962-07-14 11:00:00 Viento calma fue mal ingresado. dd = 8 - ff = 0 2022-01-11 15:32:00
1 1964-01-03 11:00:00 Viento calma fue mal ingresado. dd = 90 - ff = 0 2022-04-11 17:36:00
1 1964-06-17 14:00:00 Viento calma fue mal ingresado. dd = 0 - ff = 2 2022-04-19 17:41:00
1 1964-09-13 14:00:00 Viento calma fue mal ingresado. dd = 270 - ff = 0 2022-04-22 12:53:00
1 1965-04-10 15:00:00 Viento calma fue mal ingresado. dd = 0 - ff = 6 2022-05-03 20:54:00
1 1965-05-17 23:00:00 Viento calma fue mal ingresado. dd = 270 - ff = 0 2022-05-04 20:36:00
1 1967-02-12 16:00:00 Viento calma fue mal ingresado. dd = 270 - ff = 0 2022-04-06 18:03:00
1 1967-02-12 17:00:00 Viento calma fue mal ingresado. dd = 270 - ff = 0 2022-04-06 18:03:00
1 1967-02-12 19:00:00 Viento calma fue mal ingresado. dd = 270 - ff = 0 2022-04-06 18:03:00
1 1968-12-01 18:00:00 Viento calma fue mal ingresado. dd = 270 - ff = 0 2012-12-04 05:12:00
1 1969-05-29 00:00:00 Viento calma fue mal ingresado. dd = 270 - ff = 0 2022-03-11 16:23:00
1 1970-07-18 21:00:00 No se informa intensidad del Viento (ff) , pero si una dirección 2022-01-18 15:32:00
1 1970-08-30 00:00:00 Viento calma fue mal ingresado. dd = 270 - ff = 0 2022-01-18 20:15:00
1 2001-09-27 18:00:00 ff < 19kt y ((ww >= 31 y ww <= 35) o (ww == 37 o ww == 39 o ww >= 98))) 2012-12-04 06:32:00
1 1956-05-16 17:00:00 (ts - td > 5.0) y ((ww >= 40 y ww <= 49)) 46 2022-06-30 14:17:00
1 1957-07-26 19:00:00 ts > 3.0 y ( (ww >= 48 y ww <= 49) o (ww >= 56 y ww <= 57) o (ww >=66 y ww <= 67)) 56 2022-08-19 13:46:00
1 1957-07-26 20:00:00 ts > 3.0 y ( (ww >= 48 y ww <= 49) o (ww >= 56 y ww <= 57) o (ww >=66 y ww <= 67)) 56 2022-08-19 13:46:00
1 1957-07-26 21:00:00 ts > 3.0 y ( (ww >= 48 y ww <= 49) o (ww >= 56 y ww <= 57) o (ww >=66 y ww <= 67)) 56 2022-08-19 13:46:00
1 1964-06-13 14:00:00 (ts - td > 5.0) y ((ww >= 40 y ww <= 49)) 41 2022-04-19 13:13:00
Errores del Nivel 45
Nivel Fecha del Dato Descripción Información Error Fecha Ingreso
2 1955-06-14 00:00:00 Temperatura 15.4 del 13-06-1955 19:00, Mayor que la Máxima 15.0 14-06-1955 00:00 15.4 -- 15.0 2012-12-03 22:33:00
2 1955-08-03 00:00:00 Temperatura 15.8 del 02-08-1955 17:00, Mayor que la Máxima 15.4 03-08-1955 00:00 15.8 -- 15.4 2012-12-03 22:33:00
2 1955-11-12 00:00:00 Temperatura 18.8 del 11-11-1955 16:00, Mayor que la Máxima 18.6 12-11-1955 00:00 18.8 -- 18.6 2012-12-03 22:33:00
2 1956-01-13 00:00:00 Temperatura 24.2 del 12-01-1956 19:00, Mayor que la Máxima 24.0 13-01-1956 00:00 24.2 -- 24.0 2012-12-03 22:33:00
2 1956-01-15 00:00:00 Temperatura 25.0 del 14-01-1956 19:00, Mayor que la Máxima 24.6 15-01-1956 00:00 25.0 -- 24.6 2012-12-03 22:33:00
2 1956-02-14 00:00:00 Temperatura 23.8 del 13-02-1956 17:00, Mayor que la Máxima 23.4 14-02-1956 00:00 23.8 -- 23.4 2012-12-03 22:33:00
2 1956-08-26 00:00:00 Temperatura 14.8 del 25-08-1956 17:00, Mayor que la Máxima 14.6 26-08-1956 00:00 14.8 -- 14.6 2012-12-03 22:33:00
2 1956-09-12 00:00:00 Temperatura 14.6 del 11-09-1956 16:00, Mayor que la Máxima 14.0 12-09-1956 00:00 14.6 -- 14.0 2012-12-03 22:33:00
2 1956-09-24 00:00:00 Temperatura 16.0 del 23-09-1956 20:00, Mayor que la Máxima 15.8 24-09-1956 00:00 16.0 -- 15.8 2012-12-03 22:33:00
2 1956-10-19 00:00:00 Temperatura 17.4 del 18-10-1956 19:00, Mayor que la Máxima 16.8 19-10-1956 00:00 17.4 -- 16.8 2012-12-03 22:33:00
2 1956-11-16 00:00:00 Temperatura 18.9 del 15-11-1956 16:00, Mayor que la Máxima 18.0 16-11-1956 00:00 18.9 -- 18.0 2012-12-03 22:33:00
2 1956-11-19 00:00:00 Temperatura 20.2 del 18-11-1956 19:00, Mayor que la Máxima 20.0 19-11-1956 00:00 20.2 -- 20.0 2012-12-03 22:33:00
2 1956-12-05 00:00:00 Temperatura 20.4 del 04-12-1956 20:00, Mayor que la Máxima 20.2 05-12-1956 00:00 20.4 -- 20.2 2012-12-03 22:33:00
2 1957-03-24 00:00:00 Temperatura 23.6 del 23-03-1957 20:00, Mayor que la Máxima 23.5 24-03-1957 00:00 23.6 -- 23.5 2012-12-03 22:33:00
2 1957-03-27 00:00:00 Temperatura 21.4 del 26-03-1957 17:00, Mayor que la Máxima 21.0 27-03-1957 00:00 21.4 -- 21.0 2012-12-03 22:33:00
2 1957-06-13 00:00:00 Temperatura 16.2 del 12-06-1957 19:00, Mayor que la Máxima 16.1 13-06-1957 00:00 16.2 -- 16.1 2012-12-03 22:33:00
2 1957-06-15 00:00:00 Temperatura 18.2 del 14-06-1957 20:00, Mayor que la Máxima 18.0 15-06-1957 00:00 18.2 -- 18.0 2021-06-03 03:18:00
2 1957-06-18 00:00:00 Temperatura 17.0 del 17-06-1957 19:00, Mayor que la Máxima 16.2 18-06-1957 00:00 17.0 -- 16.2 2021-06-03 03:19:00
2 1957-07-02 00:00:00 Temperatura 16.6 del 01-07-1957 19:00, Mayor que la Máxima 16.4 02-07-1957 00:00 16.6 -- 16.4 2012-12-03 22:33:00
2 1957-07-12 00:00:00 Temperatura 17.0 del 11-07-1957 17:00, Mayor que la Máxima 16.4 12-07-1957 00:00 17.0 -- 16.4 2012-12-03 22:33:00
2 1957-07-21 00:00:00 Temperatura 17.2 del 20-07-1957 19:00, Mayor que la Máxima 17.0 21-07-1957 00:00 17.2 -- 17.0 2012-12-03 22:33:00
2 1957-08-14 00:00:00 Temperatura 18.4 del 13-08-1957 16:00, Mayor que la Máxima 18.0 14-08-1957 00:00 18.4 -- 18.0 2012-12-03 22:33:00
2 1957-08-26 00:00:00 Temperatura 18.0 del 25-08-1957 16:00, Mayor que la Máxima 17.0 26-08-1957 00:00 18.0 -- 17.0 2012-12-03 22:33:00
2 1957-08-30 00:00:00 Temperatura 17.0 del 29-08-1957 19:00, Mayor que la Máxima 16.6 30-08-1957 00:00 17.0 -- 16.6 2012-12-03 22:33:00
2 1957-09-02 00:00:00 Temperatura 18.0 del 01-09-1957 16:00, Mayor que la Máxima 16.8 02-09-1957 00:00 18.0 -- 16.8 2012-12-03 22:33:00
2 1957-09-09 00:00:00 Temperatura 17.4 del 08-09-1957 19:00, Mayor que la Máxima 17.0 09-09-1957 00:00 17.4 -- 17.0 2012-12-03 22:33:00
2 1957-09-16 00:00:00 Temperatura 16.4 del 15-09-1957 16:00, Mayor que la Máxima 16.3 16-09-1957 00:00 16.4 -- 16.3 2012-12-03 22:33:00
2 1957-09-28 00:00:00 Temperatura 16.4 del 27-09-1957 20:00, Mayor que la Máxima 16.2 28-09-1957 00:00 16.4 -- 16.2 2012-12-03 22:33:00
2 1957-10-23 00:00:00 Temperatura 17.4 del 22-10-1957 17:00, Mayor que la Máxima 17.0 23-10-1957 00:00 17.4 -- 17.0 2012-12-03 22:33:00
2 1957-10-31 00:00:00 Temperatura 18.8 del 30-10-1957 19:00, Mayor que la Máxima 18.6 31-10-1957 00:00 18.8 -- 18.6 2012-12-03 22:33:00
2 1957-11-28 00:00:00 Temperatura 21.2 del 27-11-1957 16:00, Mayor que la Máxima 21.0 28-11-1957 00:00 21.2 -- 21.0 2012-12-03 22:33:00
2 1957-11-30 00:00:00 Temperatura 20.4 del 29-11-1957 16:00, Mayor que la Máxima 20.2 30-11-1957 00:00 20.4 -- 20.2 2012-12-03 22:33:00
2 1957-12-01 00:00:00 Temperatura 21.4 del 30-11-1957 19:00, Mayor que la Máxima 21.0 01-12-1957 00:00 21.4 -- 21.0 2012-12-03 22:33:00
2 1957-12-15 00:00:00 Temperatura 20.4 del 14-12-1957 19:00, Mayor que la Máxima 20.0 15-12-1957 00:00 20.4 -- 20.0 2012-12-03 22:33:00
2 1957-12-18 00:00:00 Temperatura 20.0 del 17-12-1957 16:00, Mayor que la Máxima 19.9 18-12-1957 00:00 20.0 -- 19.9 2012-12-03 22:33:00
2 1957-12-21 00:00:00 Temperatura 21.9 del 20-12-1957 17:00, Mayor que la Máxima 21.0 21-12-1957 00:00 21.9 -- 21.0 2012-12-03 22:33:00
2 1957-12-26 00:00:00 Temperatura 22.9 del 25-12-1957 19:00, Mayor que la Máxima 22.6 26-12-1957 00:00 22.9 -- 22.6 2012-12-03 22:33:00
2 1958-01-02 00:00:00 Temperatura 21.9 del 01-01-1958 16:00, Mayor que la Máxima 21.6 02-01-1958 00:00 21.9 -- 21.6 2012-12-03 22:33:00
2 1958-01-02 00:00:00 Temperatura 21.9 del 01-01-1958 16:00, Mayor que la Máxima 21.6 02-01-1958 00:00 21.9 -- 21.6 2012-12-03 22:33:00
2 1958-01-13 00:00:00 Temperatura 23.4 del 12-01-1958 16:00, Mayor que la Máxima 23.2 13-01-1958 00:00 23.4 -- 23.2 2012-12-03 22:33:00
2 1958-01-19 00:00:00 Temperatura 28.2 del 18-01-1958 20:00, Mayor que la Máxima 24.2 19-01-1958 00:00 28.2 -- 24.2 2012-12-03 22:33:00
2 1958-01-31 00:00:00 Temperatura 24.0 del 30-01-1958 19:00, Mayor que la Máxima 23.8 31-01-1958 00:00 24.0 -- 23.8 2012-12-03 22:33:00
2 1958-03-13 00:00:00 Temperatura 24.6 del 12-03-1958 20:00, Mayor que la Máxima 24.0 13-03-1958 00:00 24.6 -- 24.0 2012-12-03 22:33:00
2 1958-05-03 00:00:00 Temperatura 18.4 del 02-05-1958 17:00, Mayor que la Máxima 18.2 03-05-1958 00:00 18.4 -- 18.2 2012-12-03 22:33:00
2 1958-05-04 00:00:00 Temperatura 18.0 del 03-05-1958 23:00, Mayor que la Máxima 17.8 04-05-1958 00:00 18.0 -- 17.8 2012-12-03 22:33:00
2 1958-06-10 00:00:00 Temperatura 15.4 del 09-06-1958 23:00, Mayor que la Máxima 15.0 10-06-1958 00:00 15.4 -- 15.0 2012-12-03 22:33:00
2 1958-06-29 00:00:00 Temperatura 18.9 del 28-06-1958 23:00, Mayor que la Máxima 16.2 29-06-1958 00:00 18.9 -- 16.2 2012-12-03 22:33:00
2 1958-08-10 00:00:00 Temperatura 16.4 del 09-08-1958 19:00, Mayor que la Máxima 16.2 10-08-1958 00:00 16.4 -- 16.2 2012-12-03 22:33:00
2 1958-09-04 00:00:00 Temperatura 18.0 del 03-09-1958 23:00, Mayor que la Máxima 17.6 04-09-1958 00:00 18.0 -- 17.6 2012-12-03 22:33:00
2 1958-09-09 00:00:00 Temperatura 19.2 del 08-09-1958 23:00, Mayor que la Máxima 17.0 09-09-1958 00:00 19.2 -- 17.0 2012-12-03 22:33:00
2 1958-11-07 00:00:00 Temperatura 20.2 del 06-11-1958 20:00, Mayor que la Máxima 20.0 07-11-1958 00:00 20.2 -- 20.0 2012-12-03 22:33:00
2 1958-11-20 00:00:00 Temperatura 19.0 del 19-11-1958 19:00, Mayor que la Máxima 18.8 20-11-1958 00:00 19.0 -- 18.8 2012-12-03 22:33:00
2 1958-11-23 00:00:00 Temperatura 20.0 del 22-11-1958 20:00, Mayor que la Máxima 19.8 23-11-1958 00:00 20.0 -- 19.8 2012-12-03 22:33:00
2 1958-11-25 00:00:00 Temperatura 19.4 del 24-11-1958 17:00, Mayor que la Máxima 19.2 25-11-1958 00:00 19.4 -- 19.2 2012-12-03 22:33:00
2 1958-12-20 00:00:00 Temperatura 20.4 del 19-12-1958 20:00, Mayor que la Máxima 20.0 20-12-1958 00:00 20.4 -- 20.0 2012-12-03 22:33:00
2 1958-12-26 00:00:00 Temperatura 20.4 del 25-12-1958 20:00, Mayor que la Máxima 20.0 26-12-1958 00:00 20.4 -- 20.0 2012-12-03 22:33:00
2 1959-01-04 00:00:00 Temperatura 21.4 del 03-01-1959 19:00, Mayor que la Máxima 20.6 04-01-1959 00:00 21.4 -- 20.6 2012-12-03 22:33:00
2 1959-01-22 00:00:00 Temperatura 21.8 del 21-01-1959 20:00, Mayor que la Máxima 21.4 22-01-1959 00:00 21.8 -- 21.4 2012-12-03 22:33:00
2 1959-03-18 00:00:00 Temperatura 22.0 del 17-03-1959 22:00, Mayor que la Máxima 20.0 18-03-1959 00:00 22.0 -- 20.0 2012-12-03 22:33:00
2 1959-03-25 00:00:00 Temperatura 21.0 del 24-03-1959 17:00, Mayor que la Máxima 20.7 25-03-1959 00:00 21.0 -- 20.7 2012-12-03 22:33:00
2 1959-03-27 00:00:00 Temperatura 20.4 del 26-03-1959 17:00, Mayor que la Máxima 20.2 27-03-1959 00:00 20.4 -- 20.2 2012-12-03 22:33:00
2 1959-04-26 00:00:00 Temperatura 19.0 del 25-04-1959 14:00, Mayor que la Máxima 18.4 26-04-1959 00:00 19.0 -- 18.4 2012-12-03 22:33:00
2 1959-05-23 00:00:00 Temperatura 16.2 del 22-05-1959 16:00, Mayor que la Máxima 16.0 23-05-1959 00:00 16.2 -- 16.0 2012-12-03 22:33:00
2 1959-06-04 00:00:00 Temperatura 18.2 del 03-06-1959 19:00, Mayor que la Máxima 18.0 04-06-1959 00:00 18.2 -- 18.0 2012-12-03 22:33:00
2 1959-06-10 00:00:00 Temperatura 14.4 del 09-06-1959 17:00, Mayor que la Máxima 14.2 10-06-1959 00:00 14.4 -- 14.2 2012-12-03 22:33:00
2 1959-08-04 00:00:00 Temperatura 15.8 del 03-08-1959 17:00, Mayor que la Máxima 15.4 04-08-1959 00:00 15.8 -- 15.4 2012-12-03 22:33:00
2 1959-09-01 00:00:00 Temperatura 18.0 del 31-08-1959 19:00, Mayor que la Máxima 17.4 01-09-1959 00:00 18.0 -- 17.4 2012-12-03 22:33:00
2 1959-10-04 00:00:00 Temperatura 16.8 del 03-10-1959 17:00, Mayor que la Máxima 16.6 04-10-1959 00:00 16.8 -- 16.6 2012-12-03 22:33:00
2 1959-12-13 00:00:00 Temperatura 18.8 del 12-12-1959 20:00, Mayor que la Máxima 18.6 13-12-1959 00:00 18.8 -- 18.6 2012-12-03 22:33:00
2 1960-01-23 00:00:00 Temperatura 22.4 del 22-01-1960 19:00, Mayor que la Máxima 22.0 23-01-1960 00:00 22.4 -- 22.0 2012-12-03 22:34:00
2 1960-02-01 00:00:00 Temperatura 26.0 del 31-01-1960 17:00, Mayor que la Máxima 23.4 01-02-1960 00:00 26.0 -- 23.4 2012-12-03 22:34:00
2 1960-02-08 00:00:00 Temperatura 23.4 del 07-02-1960 17:00, Mayor que la Máxima 23.2 08-02-1960 00:00 23.4 -- 23.2 2012-12-03 22:34:00
2 1960-04-11 00:00:00 Temperatura 21.2 del 10-04-1960 20:00, Mayor que la Máxima 21.0 11-04-1960 00:00 21.2 -- 21.0 2012-12-03 22:34:00
2 1960-04-14 00:00:00 Temperatura 28.0 del 13-04-1960 16:00, Mayor que la Máxima 26.2 14-04-1960 00:00 28.0 -- 26.2 2012-12-03 22:34:00
2 1960-05-05 00:00:00 Temperatura 19.4 del 04-05-1960 16:00, Mayor que la Máxima 19.0 05-05-1960 00:00 19.4 -- 19.0 2012-12-03 22:34:00
2 1960-05-14 00:00:00 Temperatura 23.0 del 13-05-1960 16:00, Mayor que la Máxima 19.0 14-05-1960 00:00 23.0 -- 19.0 2012-12-03 22:34:00
2 1960-08-06 00:00:00 Temperatura 19.0 del 05-08-1960 14:00, Mayor que la Máxima 18.6 06-08-1960 00:00 19.0 -- 18.6 2012-12-03 22:34:00
2 1960-08-21 00:00:00 Temperatura 16.0 del 20-08-1960 19:00, Mayor que la Máxima 15.8 21-08-1960 00:00 16.0 -- 15.8 2012-12-03 22:34:00
2 1960-10-06 00:00:00 Temperatura 19.0 del 05-10-1960 17:00, Mayor que la Máxima 18.4 06-10-1960 00:00 19.0 -- 18.4 2012-12-03 22:34:00
2 1960-11-22 00:00:00 Temperatura 21.0 del 21-11-1960 22:00, Mayor que la Máxima 19.3 22-11-1960 00:00 21.0 -- 19.3 2012-12-03 22:34:00
2 1961-01-11 00:00:00 Temperatura 29.0 del 10-01-1961 22:00, Mayor que la Máxima 22.1 11-01-1961 00:00 29.0 -- 22.1 2012-12-03 22:34:00
2 1961-03-03 00:00:00 Temperatura 20.4 del 02-03-1961 19:00, Mayor que la Máxima 20.0 03-03-1961 00:00 20.4 -- 20.0 2012-12-03 22:34:00
2 1961-03-21 00:00:00 Temperatura 21.4 del 20-03-1961 14:00, Mayor que la Máxima 21.2 21-03-1961 00:00 21.4 -- 21.2 2012-12-03 22:34:00
2 1961-06-03 00:00:00 Temperatura 19.0 del 02-06-1961 16:00, Mayor que la Máxima 17.3 03-06-1961 00:00 19.0 -- 17.3 2012-12-03 22:34:00
2 1961-06-04 00:00:00 Temperatura 18.4 del 03-06-1961 23:00, Mayor que la Máxima 18.2 04-06-1961 00:00 18.4 -- 18.2 2012-12-03 22:34:00
2 1961-09-04 00:00:00 Temperatura 17.4 del 03-09-1961 20:00, Mayor que la Máxima 17.2 04-09-1961 00:00 17.4 -- 17.2 2012-12-03 22:34:00
2 1961-09-26 00:00:00 Temperatura 16.3 del 25-09-1961 17:00, Mayor que la Máxima 16.2 26-09-1961 00:00 16.3 -- 16.2 2012-12-03 22:34:00
2 1961-10-16 00:00:00 Temperatura 17.4 del 15-10-1961 16:00, Mayor que la Máxima 17.3 16-10-1961 00:00 17.4 -- 17.3 2012-12-03 22:34:00
2 1961-10-17 00:00:00 Temperatura 18.1 del 16-10-1961 16:00, Mayor que la Máxima 18.0 17-10-1961 00:00 18.1 -- 18.0 2012-12-03 22:34:00
2 1961-10-31 00:00:00 Temperatura 18.2 del 30-10-1961 17:00, Mayor que la Máxima 18.0 31-10-1961 00:00 18.2 -- 18.0 2012-12-03 22:34:00
2 1961-11-13 00:00:00 Temperatura 19.9 del 12-11-1961 17:00, Mayor que la Máxima 19.4 13-11-1961 00:00 19.9 -- 19.4 2012-12-03 22:34:00
2 1962-03-04 00:00:00 Temperatura 21.8 del 03-03-1962 20:00, Mayor que la Máxima 21.6 04-03-1962 00:00 21.8 -- 21.6 2012-12-03 22:34:00
2 1962-04-03 00:00:00 Temperatura 19.4 del 02-04-1962 19:00, Mayor que la Máxima 19.0 03-04-1962 00:00 19.4 -- 19.0 2012-12-03 22:34:00
2 1962-04-08 00:00:00 Temperatura 19.8 del 07-04-1962 22:00, Mayor que la Máxima 19.2 08-04-1962 00:00 19.8 -- 19.2 2012-12-03 22:34:00
2 1962-04-26 00:00:00 Temperatura 19.4 del 25-04-1962 20:00, Mayor que la Máxima 19.0 26-04-1962 00:00 19.4 -- 19.0 2012-12-03 22:34:00
2 1962-05-20 00:00:00 Temperatura 18.4 del 19-05-1962 20:00, Mayor que la Máxima 18.2 20-05-1962 00:00 18.4 -- 18.2 2012-12-03 22:34:00
2 1962-09-10 00:00:00 Temperatura 14.2 del 09-09-1962 17:00, Mayor que la Máxima 14.0 10-09-1962 00:00 14.2 -- 14.0 2012-12-03 22:34:00
2 1962-09-29 00:00:00 Temperatura 18.0 del 28-09-1962 14:00, Mayor que la Máxima 17.4 29-09-1962 00:00 18.0 -- 17.4 2012-12-03 22:34:00
2 1963-10-04 00:00:00 Temperatura 16.6 del 03-10-1963 17:00, Mayor que la Máxima 16.4 04-10-1963 00:00 16.6 -- 16.4 2012-12-03 22:34:00
2 1964-04-19 00:00:00 Temperatura 16.6 del 18-04-1964 19:00, Mayor que la Máxima 16.2 19-04-1964 00:00 16.6 -- 16.2 2012-12-03 22:34:00
2 1964-04-28 00:00:00 Temperatura 18.4 del 27-04-1964 17:00, Mayor que la Máxima 18.2 28-04-1964 00:00 18.4 -- 18.2 2012-12-03 22:34:00
2 1964-07-18 00:00:00 Temperatura 16.0 del 17-07-1964 17:00, Mayor que la Máxima 15.2 18-07-1964 00:00 16.0 -- 15.2 2012-12-03 22:34:00
2 1964-10-17 00:00:00 Temperatura 18.0 del 16-10-1964 14:00, Mayor que la Máxima 17.4 17-10-1964 00:00 18.0 -- 17.4 2012-12-03 22:34:00
2 1964-11-13 00:00:00 Temperatura 17.2 del 12-11-1964 20:00, Mayor que la Máxima 17.0 13-11-1964 00:00 17.2 -- 17.0 2012-12-03 22:34:00
2 1964-11-14 00:00:00 Temperatura 19.6 del 13-11-1964 20:00, Mayor que la Máxima 19.2 14-11-1964 00:00 19.6 -- 19.2 2012-12-03 22:34:00
2 1966-03-31 00:00:00 Temperatura 19.2 del 30-03-1966 19:00, Mayor que la Máxima 19.0 31-03-1966 00:00 19.2 -- 19.0 2012-12-03 22:35:00
2 1966-04-27 00:00:00 Temperatura 18.2 del 26-04-1966 20:00, Mayor que la Máxima 18.0 27-04-1966 00:00 18.2 -- 18.0 2012-12-03 22:35:00
2 1966-05-17 00:00:00 Temperatura 15.4 del 16-05-1966 20:00, Mayor que la Máxima 15.0 17-05-1966 00:00 15.4 -- 15.0 2012-12-03 22:35:00
2 1966-05-31 00:00:00 Temperatura 15.2 del 30-05-1966 17:00, Mayor que la Máxima 15.0 31-05-1966 00:00 15.2 -- 15.0 2012-12-03 22:35:00
2 1966-08-07 00:00:00 Temperatura 14.2 del 06-08-1966 20:00, Mayor que la Máxima 14.0 07-08-1966 00:00 14.2 -- 14.0 2012-12-03 22:35:00
2 1966-11-08 00:00:00 Temperatura 18.4 del 07-11-1966 16:00, Mayor que la Máxima 18.2 08-11-1966 00:00 18.4 -- 18.2 2012-12-03 22:35:00
2 1967-05-23 00:00:00 Temperatura 19.8 del 22-05-1967 20:00, Mayor que la Máxima 19.6 23-05-1967 00:00 19.8 -- 19.6 2012-12-03 22:35:00
2 1967-05-29 00:00:00 Temperatura 19.0 del 28-05-1967 14:00, Mayor que la Máxima 18.2 29-05-1967 00:00 19.0 -- 18.2 2012-12-03 22:35:00
2 1967-06-05 00:00:00 Temperatura 19.2 del 04-06-1967 17:00, Mayor que la Máxima 18.4 05-06-1967 00:00 19.2 -- 18.4 2012-12-03 22:35:00
2 1968-04-01 00:00:00 Temperatura 18.4 del 31-03-1968 19:00, Mayor que la Máxima 18.2 01-04-1968 00:00 18.4 -- 18.2 2012-12-03 22:35:00
2 1968-05-15 00:00:00 Temperatura 19.6 del 14-05-1968 16:00, Mayor que la Máxima 18.4 15-05-1968 00:00 19.6 -- 18.4 2012-12-03 22:35:00
2 1968-11-08 00:00:00 Temperatura 18.5 del 07-11-1968 16:00, Mayor que la Máxima 18.4 08-11-1968 00:00 18.5 -- 18.4 2012-12-03 22:35:00
2 1968-11-14 00:00:00 Temperatura 19.2 del 13-11-1968 20:00, Mayor que la Máxima 19.0 14-11-1968 00:00 19.2 -- 19.0 2012-12-03 22:35:00
2 1973-02-25 00:00:00 Temperatura 26.9 del 24-02-1973 22:00, Mayor que la Máxima 21.3 25-02-1973 00:00 26.9 -- 21.3 2012-12-03 22:36:00
2 1974-06-05 00:00:00 Temperatura 17.4 del 04-06-1974 13:00, Mayor que la Máxima 14.6 05-06-1974 00:00 17.4 -- 14.6 2012-12-03 22:37:00
2 1978-03-31 00:00:00 Temperatura 19.2 del 30-03-1978 14:00, Mayor que la Máxima 19.1 31-03-1978 00:00 19.2 -- 19.1 2012-12-03 22:38:00
2 1983-03-14 00:00:00 Temperatura 23.4 del 13-03-1983 17:00, Mayor que la Máxima 22.8 14-03-1983 00:00 23.4 -- 22.8 2012-12-03 22:39:00
2 1988-03-19 00:00:00 Temperatura 21.6 del 18-03-1988 18:00, Mayor que la Máxima 18.6 19-03-1988 00:00 21.6 -- 18.6 2012-12-03 22:40:00
2 1989-03-14 00:00:00 Temperatura 23.0 del 13-03-1989 18:00, Mayor que la Máxima 22.2 14-03-1989 00:00 23.0 -- 22.2 2012-12-03 22:40:00
2 1989-06-09 00:00:00 Temperatura 17.7 del 08-06-1989 15:00, Mayor que la Máxima 15.4 09-06-1989 00:00 17.7 -- 15.4 2012-12-03 22:40:00
2 1989-06-10 00:00:00 Temperatura 16.5 del 09-06-1989 18:00, Mayor que la Máxima 16.0 10-06-1989 00:00 16.5 -- 16.0 2012-12-03 22:40:00
2 1991-02-14 00:00:00 Temperatura 23.0 del 13-02-1991 18:00, Mayor que la Máxima 22.3 14-02-1991 00:00 23.0 -- 22.3 2012-12-03 22:41:00
2 1991-03-02 00:00:00 Temperatura 20.5 del 01-03-1991 18:00, Mayor que la Máxima 19.8 02-03-1991 00:00 20.5 -- 19.8 2012-12-03 22:41:00
2 1991-06-21 00:00:00 Temperatura 18.4 del 20-06-1991 18:00, Mayor que la Máxima 17.9 21-06-1991 00:00 18.4 -- 17.9 2012-12-03 22:41:00
2 1991-06-22 00:00:00 Temperatura 17.3 del 21-06-1991 18:00, Mayor que la Máxima 16.5 22-06-1991 00:00 17.3 -- 16.5 2012-12-03 22:41:00
2 1994-07-22 00:00:00 Temperatura 16.6 del 21-07-1994 18:00, Mayor que la Máxima 16.4 22-07-1994 00:00 16.6 -- 16.4 2012-12-03 22:41:00
2 1995-04-20 00:00:00 Temperatura 20.0 del 19-04-1995 15:00, Mayor que la Máxima 2.0 20-04-1995 00:00 20.0 -- 2.0 2012-12-03 22:41:00
2 1996-03-14 00:00:00 Temperatura 21.4 del 13-03-1996 18:00, Mayor que la Máxima 20.6 14-03-1996 00:00 21.4 -- 20.6 2012-12-03 22:42:00
2 1996-09-11 00:00:00 Temperatura 16.0 del 10-09-1996 15:00, Mayor que la Máxima 15.8 11-09-1996 00:00 16.0 -- 15.8 2012-12-03 22:42:00
2 1997-05-28 00:00:00 Temperatura 20.4 del 27-05-1997 18:00, Mayor que la Máxima 20.2 28-05-1997 00:00 20.4 -- 20.2 2012-12-03 22:42:00
2 1997-06-10 00:00:00 Temperatura 21.0 del 09-06-1997 15:00, Mayor que la Máxima 20.9 10-06-1997 00:00 21.0 -- 20.9 2012-12-03 22:42:00
2 1998-05-06 00:00:00 Temperatura 19.2 del 05-05-1998 18:00, Mayor que la Máxima 2.0 06-05-1998 00:00 19.2 -- 2.0 2012-12-03 22:42:00
2 1998-06-26 00:00:00 Temperatura 17.0 del 25-06-1998 18:00, Mayor que la Máxima 16.8 26-06-1998 00:00 17.0 -- 16.8 2012-12-03 22:42:00
2 1998-07-17 00:00:00 Temperatura 17.7 del 16-07-1998 18:00, Mayor que la Máxima 17.6 17-07-1998 00:00 17.7 -- 17.6 2012-12-03 22:42:00
2 1998-07-28 00:00:00 Temperatura 16.4 del 27-07-1998 18:00, Mayor que la Máxima 15.8 28-07-1998 00:00 16.4 -- 15.8 2012-12-03 22:42:00
2 1956-01-18 14:00:00 Variación horaria de Intensidad del viento fuera de rango (1 hora Antes) 63 - 10 2022-06-20 13:25:00
2 1956-01-18 15:00:00 Variación horaria de Intensidad del viento fuera de rango (1 hora Antes) 9 - 63 2012-12-04 04:55:00
2 1956-02-04 17:00:00 Variación horaria de Intensidad del viento fuera de rango (1 hora Antes) 102 - 10 2022-06-20 19:07:00
2 1956-02-04 17:00:00 Variación Tri-horaria de Intensidad del viento fuera de rango (3 hora Antes) 102 - 4 2022-06-20 19:07:00
2 1956-02-04 18:00:00 Variación horaria de Intensidad del viento fuera de rango (1 hora Antes) 12 - 102 2012-12-04 04:55:00
2 1956-04-28 09:00:00 Variación horaria de Intensidad del viento fuera de rango (1 hora Antes) 0 - 40 2012-12-04 04:56:00
2 1956-06-28 22:00:00 Variación horaria de Intensidad del viento fuera de rango (1 hora Antes) 40 - 4 2022-07-04 16:25:00
2 1956-06-28 23:00:00 Variación horaria de Intensidad del viento fuera de rango (1 hora Antes) 4 - 40 2022-07-04 16:25:00
2 1956-07-10 10:00:00 Variación horaria de Intensidad del viento fuera de rango (1 hora Antes) 44 - 4 2022-07-05 02:16:00
2 1956-07-10 11:00:00 Variación horaria de Intensidad del viento fuera de rango (1 hora Antes) 2 - 44 2022-07-05 02:16:00
2 1956-08-01 23:00:00 Variación horaria de Intensidad del viento fuera de rango (1 hora Antes) 60 - 6 2022-07-05 21:45:00
2 1956-09-30 14:00:00 Variación horaria de Intensidad del viento fuera de rango (1 hora Antes) 40 - 0 2022-07-08 20:05:00
2 1956-09-30 15:00:00 Variación horaria de Intensidad del viento fuera de rango (1 hora Antes) 6 - 40 2012-12-04 04:57:00
2 1957-02-08 18:00:00 Variación horaria de Intensidad del viento fuera de rango (1 hora Antes) 40 - 9 2012-12-04 04:57:00
2 1961-01-23 14:00:00 Variación horaria de Intensidad del viento fuera de rango (1 hora Antes) 58 - 4 2022-05-23 21:00:00
2 1961-01-23 15:00:00 Variación horaria de Intensidad del viento fuera de rango (1 hora Antes) 7 - 58 2012-12-04 05:02:00
2 1961-12-15 16:00:00 Variación horaria de Intensidad del viento fuera de rango (1 hora Antes) 125 - 10 2022-06-13 20:19:00
2 1961-12-15 16:00:00 Variación Tri-horaria de Intensidad del viento fuera de rango (3 hora Antes) 125 - 0 2022-06-13 20:19:00
2 1961-12-15 17:00:00 Variación horaria de Intensidad del viento fuera de rango (1 hora Antes) 14 - 125 2022-06-13 20:19:00
2 1961-12-15 19:00:00 Variación Tri-horaria de Intensidad del viento fuera de rango (3 hora Antes) 16 - 125 2022-06-13 20:19:00
2 1961-12-31 14:00:00 Variación horaria de Intensidad del viento fuera de rango (1 hora Antes) 47 - 4 2022-06-14 15:04:00
2 1961-12-31 15:00:00 Variación horaria de Intensidad del viento fuera de rango (1 hora Antes) 10 - 47 2012-12-04 05:03:00
2 1962-02-14 16:00:00 Variación horaria de Intensidad del viento fuera de rango (1 hora Antes) 100 - 6 2021-12-23 17:01:00
2 1962-02-14 16:00:00 Variación Tri-horaria de Intensidad del viento fuera de rango (3 hora Antes) 100 - 4 2021-12-23 17:01:00
2 1962-02-14 17:00:00 Variación horaria de Intensidad del viento fuera de rango (1 hora Antes) 10 - 100 2021-12-23 17:01:00
2 1964-05-06 15:00:00 Variación horaria de Intensidad del viento fuera de rango (1 hora Antes) 0 - 34 2012-12-04 05:06:00
2 1964-07-02 13:00:00 Variación horaria de Intensidad del viento fuera de rango (1 hora Antes) 98 - 10 2022-04-20 13:07:00
2 1964-07-02 14:00:00 Variación horaria de Intensidad del viento fuera de rango (1 hora Antes) 8 - 98 2022-04-20 13:07:00
2 1964-07-05 23:00:00 Variación horaria de Intensidad del viento fuera de rango (1 hora Antes) 64 - 6 2022-04-20 13:45:00
2 1966-07-04 12:00:00 Variación horaria de Intensidad del viento fuera de rango (1 hora Antes) 6 - 90 2012-12-04 05:09:00
2 1966-07-04 13:00:00 Variación horaria de Intensidad del viento fuera de rango (1 hora Antes) 90 - 6 2022-05-17 17:16:00
2 1966-07-04 15:00:00 Variación horaria de Intensidad del viento fuera de rango (1 hora Antes) 0 - 90 2012-12-04 05:09:00
2 1968-03-05 16:00:00 Variación horaria de Intensidad del viento fuera de rango (1 hora Antes) 140 - 6 2022-07-11 14:30:00
2 1968-03-05 16:00:00 Variación Tri-horaria de Intensidad del viento fuera de rango (3 hora Antes) 140 - 0 2022-07-11 14:30:00
2 1968-03-05 17:00:00 Variación horaria de Intensidad del viento fuera de rango (1 hora Antes) 15 - 140 2022-07-11 14:30:00
2 1968-03-05 19:00:00 Variación Tri-horaria de Intensidad del viento fuera de rango (3 hora Antes) 16 - 140 2022-07-11 14:30:00
2 1968-12-01 17:00:00 Variación horaria de Intensidad del viento fuera de rango (1 hora Antes) 120 - 15 2022-10-24 13:25:00
2 1968-12-01 17:00:00 Variación Tri-horaria de Intensidad del viento fuera de rango (3 hora Antes) 120 - 6 2022-10-24 13:25:00
2 1968-12-01 18:00:00 Variación horaria de Intensidad del viento fuera de rango (1 hora Antes) 0 - 120 2012-12-04 05:12:00
2 1968-12-01 20:00:00 Variación Tri-horaria de Intensidad del viento fuera de rango (3 hora Antes) 12 - 120 2022-10-24 13:25:00
2 1977-12-31 21:00:00 Variación horaria de Intensidad del viento fuera de rango (1 hora Antes) 40 - 9 2012-12-04 05:47:00
2 1978-08-31 22:00:00 Variación horaria de Intensidad del viento fuera de rango (1 hora Antes) 8 - 40 2012-12-04 05:50:00
2 1958-02-16 12:00:00 Temperatura 18.0 del 16-02-1958 11:00, Menor que la Mínima 18.4 16-02-1958 12:00 18.0 -- 18.4 2012-12-03 22:43:00
2 1958-08-24 12:00:00 Temperatura 7.0 del 24-08-1958 11:00, Menor que la Mínima 8.0 24-08-1958 12:00 7.0 -- 8.0 2012-12-03 22:43:00
2 1958-09-14 12:00:00 Temperatura 12.0 del 14-09-1958 11:00, Menor que la Mínima 12.2 14-09-1958 12:00 12.0 -- 12.2 2012-12-03 22:43:00
2 1958-09-28 12:00:00 Temperatura 12.0 del 28-09-1958 11:00, Menor que la Mínima 13.2 28-09-1958 12:00 12.0 -- 13.2 2012-12-03 22:43:00
2 1958-10-02 12:00:00 Temperatura 13.4 del 02-10-1958 11:00, Menor que la Mínima 13.8 02-10-1958 12:00 13.4 -- 13.8 2012-12-03 22:43:00
2 1958-10-24 12:00:00 Temperatura 14.0 del 24-10-1958 11:00, Menor que la Mínima 14.2 24-10-1958 12:00 14.0 -- 14.2 2012-12-03 22:43:00
2 1959-01-18 12:00:00 Temperatura 18.0 del 18-01-1959 11:00, Menor que la Mínima 18.6 18-01-1959 12:00 18.0 -- 18.6 2012-12-03 22:43:00
2 1959-02-04 12:00:00 Temperatura 15.8 del 04-02-1959 11:00, Menor que la Mínima 16.0 04-02-1959 12:00 15.8 -- 16.0 2012-12-03 22:44:00
2 1959-02-20 12:00:00 Temperatura 16.4 del 20-02-1959 11:00, Menor que la Mínima 17.0 20-02-1959 12:00 16.4 -- 17.0 2012-12-03 22:44:00
2 1959-06-28 12:00:00 Temperatura 9.0 del 28-06-1959 11:00, Menor que la Mínima 10.0 28-06-1959 12:00 9.0 -- 10.0 2012-12-03 22:44:00
2 1959-08-03 12:00:00 Temperatura 10.0 del 03-08-1959 11:00, Menor que la Mínima 11.8 03-08-1959 12:00 10.0 -- 11.8 2012-12-03 22:44:00
2 1959-11-10 12:00:00 Temperatura 13.0 del 10-11-1959 11:00, Menor que la Mínima 13.4 10-11-1959 12:00 13.0 -- 13.4 2012-12-03 22:44:00
2 1960-01-22 12:00:00 Temperatura 17.0 del 22-01-1960 11:00, Menor que la Mínima 18.0 22-01-1960 12:00 17.0 -- 18.0 2012-12-03 22:44:00
2 1960-02-12 12:00:00 Temperatura 16.0 del 12-02-1960 11:00, Menor que la Mínima 16.2 12-02-1960 12:00 16.0 -- 16.2 2012-12-03 22:44:00
2 1960-03-09 12:00:00 Temperatura 16.8 del 09-03-1960 11:00, Menor que la Mínima 17.0 09-03-1960 12:00 16.8 -- 17.0 2012-12-03 22:44:00
2 1960-10-28 12:00:00 Temperatura 14.0 del 28-10-1960 11:00, Menor que la Mínima 14.2 28-10-1960 12:00 14.0 -- 14.2 2012-12-03 22:44:00
2 1961-09-05 12:00:00 Temperatura 11.2 del 05-09-1961 12:00, Menor que la Mínima 12.0 05-09-1961 12:00 11.2 -- 12.0 2012-12-03 22:44:00
2 1964-01-23 12:00:00 Temperatura 16.0 del 23-01-1964 11:00, Menor que la Mínima 17.4 23-01-1964 12:00 16.0 -- 17.4 2012-12-03 22:45:00
2 1964-10-26 12:00:00 Temperatura 11.0 del 26-10-1964 11:00, Menor que la Mínima 11.2 26-10-1964 12:00 11.0 -- 11.2 2012-12-03 22:45:00
2 1964-12-28 12:00:00 Temperatura 16.4 del 28-12-1964 11:00, Menor que la Mínima 17.0 28-12-1964 12:00 16.4 -- 17.0 2012-12-03 22:45:00
2 1967-11-29 12:00:00 Temperatura 15.0 del 29-11-1967 11:00, Menor que la Mínima 15.6 29-11-1967 12:00 15.0 -- 15.6 2012-12-03 22:46:00
2 1978-02-18 12:00:00 Temperatura 17.0 del 18-02-1978 11:00, Menor que la Mínima 17.2 18-02-1978 12:00 17.0 -- 17.2 2012-12-03 22:49:00
2 1978-05-10 12:00:00 Temperatura 15.2 del 10-05-1978 11:00, Menor que la Mínima 15.3 10-05-1978 12:00 15.2 -- 15.3 2012-12-03 22:49:00
2 1978-12-02 12:00:00 Temperatura 15.6 del 02-12-1978 11:00, Menor que la Mínima 16.0 02-12-1978 12:00 15.6 -- 16.0 2012-12-03 22:49:00
2 1979-07-11 12:00:00 Temperatura 13.0 del 11-07-1979 11:00, Menor que la Mínima 13.3 11-07-1979 12:00 13.0 -- 13.3 2012-12-03 22:50:00
2 1980-10-12 12:00:00 Temperatura 11.0 del 12-10-1980 10:00, Menor que la Mínima 11.8 12-10-1980 12:00 11.0 -- 11.8 2012-12-03 22:50:00
2 1984-10-25 12:00:00 Temperatura 15.6 del 25-10-1984 10:00, Menor que la Mínima 15.8 25-10-1984 12:00 15.6 -- 15.8 2012-12-03 22:51:00
Errores del Nivel 209
Informe generado el 23-02-2024 11:19
Requerimiento: RE6001